createdAt,value
2019-06-10T00:01:08.799Z,4.05
2019-06-10T00:03:37.559Z,8.63
2019-06-10T00:06:07.074Z,5.55
2019-06-10T00:08:35.388Z,6.87
2019-06-10T00:11:05.047Z,6.40
2019-06-10T00:13:33.470Z,5.87
2019-06-10T00:16:03.456Z,7.80
2019-06-10T00:18:41.104Z,7.45
2019-06-10T00:21:03.726Z,5.40
2019-06-10T00:23:32.152Z,5.37
2019-06-10T00:26:03.216Z,5.95
2019-06-10T00:28:31.127Z,9.30
2019-06-10T00:31:01.182Z,9.10
2019-06-10T00:33:30.881Z,9.70
2019-06-10T00:36:01.701Z,8.18
2019-06-10T00:38:31.673Z,7.25
2019-06-10T00:40:59.991Z,5.87
2019-06-10T00:43:30.605Z,5.85
2019-06-10T00:45:59.993Z,8.50
2019-06-10T00:48:32.113Z,14.30
2019-06-10T00:51:01.327Z,11.75
2019-06-10T00:53:31.482Z,7.72
2019-06-10T00:55:58.856Z,10.05
2019-06-10T00:58:26.810Z,8.38
2019-06-10T01:00:55.087Z,8.50
2019-06-10T01:03:23.102Z,9.03
2019-06-10T01:05:51.449Z,8.48
2019-06-10T01:08:21.478Z,7.17
2019-06-10T01:10:52.042Z,6.47
2019-06-10T01:13:20.806Z,6.08
2019-06-10T01:15:51.090Z,7.55
2019-06-10T01:18:34.838Z,5.47
2019-06-10T01:20:51.579Z,5.97
2019-06-10T01:23:21.652Z,9.75
2019-06-10T01:25:51.050Z,7.75
2019-06-10T01:28:21.826Z,7.45
2019-06-10T01:30:51.563Z,8.78
2019-06-10T01:33:21.210Z,8.78
2019-06-10T01:35:51.310Z,6.35
2019-06-10T01:38:21.206Z,6.30
2019-06-10T01:40:50.928Z,6.83
2019-06-10T01:43:21.234Z,5.60
2019-06-10T01:45:51.133Z,5.53
2019-06-10T01:48:20.969Z,5.60
2019-06-10T01:50:51.073Z,9.88
2019-06-10T01:53:22.054Z,5.87
2019-06-10T01:55:51.821Z,5.42
2019-06-10T01:58:23.312Z,6.65
2019-06-10T02:01:05.563Z,12.98
2019-06-10T02:03:33.563Z,7.08
2019-06-10T02:06:01.705Z,5.20
2019-06-10T02:08:31.703Z,4.85
2019-06-10T02:11:01.102Z,6.42
2019-06-10T02:13:32.541Z,6.25
2019-06-10T02:16:02.135Z,5.33
2019-06-10T02:18:32.108Z,6.10
2019-06-10T02:21:01.101Z,6.30
2019-06-10T02:23:31.406Z,4.03
2019-06-10T02:26:01.620Z,7.12
2019-06-10T02:28:31.349Z,5.20
2019-06-10T02:31:02.607Z,7.95
2019-06-10T02:33:32.354Z,5.65
2019-06-10T02:35:59.215Z,5.83
2019-06-10T02:38:33.705Z,6.00
2019-06-10T02:40:57.604Z,4.55
2019-06-10T02:43:32.071Z,6.37
2019-06-10T02:48:30.232Z,6.30
2019-06-10T02:51:04.586Z,3.83
2019-06-10T02:53:35.967Z,5.42
2019-06-10T02:56:07.259Z,8.80
2019-06-10T02:58:39.171Z,6.87
2019-06-10T03:01:06.478Z,5.67
2019-06-10T03:03:42.815Z,4.00
2019-06-10T03:06:06.551Z,4.42
2019-06-10T03:08:36.046Z,5.83
2019-06-10T03:11:06.122Z,6.55
2019-06-10T03:13:34.056Z,6.03
2019-06-10T03:16:15.739Z,3.42
2019-06-10T03:18:43.785Z,6.08
2019-06-10T03:21:12.574Z,3.70
2019-06-10T03:23:42.649Z,3.27
2019-06-10T03:26:12.336Z,7.33
2019-06-10T03:28:42.894Z,4.17
2019-06-10T03:31:15.162Z,3.02
2019-06-10T03:33:46.805Z,6.00
2019-06-10T03:36:12.432Z,3.35
2019-06-10T03:38:42.968Z,6.03
2019-06-10T03:41:12.505Z,7.15
2019-06-10T03:43:42.678Z,4.55
2019-06-10T03:46:13.344Z,7.25
2019-06-10T03:48:43.072Z,6.37
2019-06-10T03:51:12.611Z,3.62
2019-06-10T03:53:42.562Z,5.22
2019-06-10T03:56:12.723Z,5.33
2019-06-10T03:58:42.777Z,4.87
2019-06-10T04:01:12.290Z,3.25
2019-06-10T04:03:42.830Z,4.62
2019-06-10T04:06:13.070Z,3.90
2019-06-10T04:08:43.301Z,3.70
2019-06-10T04:11:12.174Z,4.30
2019-06-10T04:13:42.856Z,4.72
2019-06-10T04:16:12.781Z,4.65
2019-06-10T04:18:42.814Z,2.95
2019-06-10T04:21:12.608Z,2.20
2019-06-10T04:23:42.366Z,7.67
2019-06-10T04:26:12.515Z,5.30
2019-06-10T04:28:40.074Z,6.45
2019-06-10T04:31:08.070Z,4.50
2019-06-10T04:33:36.015Z,4.83
2019-06-10T04:36:05.150Z,3.30
2019-06-10T04:38:33.120Z,4.85
2019-06-10T04:41:03.319Z,4.58
2019-06-10T04:43:32.611Z,4.10
2019-06-10T04:46:02.540Z,2.27
2019-06-10T04:48:32.621Z,4.95
2019-06-10T04:51:02.781Z,3.83
2019-06-10T04:53:32.879Z,5.67
2019-06-10T04:56:03.133Z,5.58
2019-06-10T04:58:33.425Z,3.55
2019-06-10T05:01:03.174Z,8.13
2019-06-10T05:03:32.917Z,8.55
2019-06-10T05:06:03.272Z,5.03
2019-06-10T05:08:33.772Z,4.47
2019-06-10T05:11:03.596Z,6.35
2019-06-10T05:13:33.699Z,3.90
2019-06-10T05:16:03.715Z,8.25
2019-06-10T05:18:33.207Z,2.65
2019-06-10T05:21:02.809Z,2.85
2019-06-10T05:23:32.881Z,2.90
2019-06-10T05:26:02.692Z,2.80
2019-06-10T05:28:31.040Z,3.95
2019-06-10T05:30:59.028Z,3.08
2019-06-10T05:33:28.549Z,5.05
2019-06-10T05:35:56.726Z,2.30
2019-06-10T05:38:26.828Z,4.22
2019-06-10T05:40:54.658Z,6.95
2019-06-10T05:43:24.918Z,4.40
2019-06-10T05:45:53.102Z,4.33
2019-06-10T05:48:22.705Z,3.70
2019-06-10T05:51:00.209Z,3.75
2019-06-10T05:53:23.096Z,9.20
2019-06-10T05:55:52.940Z,6.95
2019-06-10T05:58:23.523Z,9.43
2019-06-10T06:00:53.130Z,7.83
2019-06-10T06:03:22.999Z,9.63
2019-06-10T06:05:52.488Z,7.10
2019-06-10T06:08:22.813Z,8.35
2019-06-10T06:10:52.757Z,3.40
2019-06-10T06:13:23.110Z,5.60
2019-06-10T06:15:52.823Z,6.55
2019-06-10T06:18:22.578Z,5.70
2019-06-10T06:20:52.642Z,18.55
2019-06-10T06:23:23.088Z,5.62
2019-06-10T06:25:53.198Z,5.67
2019-06-10T06:28:22.968Z,6.22
2019-06-10T06:30:52.801Z,5.12
2019-06-10T06:33:22.123Z,12.53
2019-06-10T06:35:52.450Z,3.60
2019-06-10T06:38:22.426Z,5.17
2019-06-10T06:40:53.526Z,5.10
2019-06-10T06:43:22.238Z,3.98
2019-06-10T06:45:52.998Z,4.17
2019-06-10T06:48:22.601Z,4.30
2019-06-10T06:51:02.109Z,4.65
2019-06-10T06:53:29.984Z,7.33
2019-06-10T06:55:53.554Z,5.20
2019-06-10T06:58:22.746Z,4.83
2019-06-10T07:01:01.359Z,4.58
2019-06-10T07:03:22.875Z,6.80
2019-06-10T07:05:53.004Z,6.17
2019-06-10T07:08:22.872Z,5.47
2019-06-10T07:10:52.365Z,6.42
2019-06-10T07:13:22.182Z,6.95
2019-06-10T07:15:53.327Z,5.50
2019-06-10T07:18:23.701Z,10.95
2019-06-10T07:20:53.934Z,4.05
2019-06-10T07:23:22.540Z,5.03
2019-06-10T07:25:53.078Z,7.67
2019-06-10T07:28:23.037Z,15.68
2019-06-10T07:30:55.095Z,12.00
2019-06-10T07:33:22.694Z,7.50
2019-06-10T07:35:52.517Z,8.05
2019-06-10T07:38:24.027Z,7.65
2019-06-10T07:40:53.037Z,9.48
2019-06-10T07:43:23.102Z,9.10
2019-06-10T07:45:53.409Z,13.68
2019-06-10T07:48:22.288Z,5.65
2019-06-10T07:50:53.061Z,9.03
2019-06-10T07:53:22.266Z,6.87
2019-06-10T07:55:50.675Z,5.00
2019-06-10T07:58:18.825Z,6.22
2019-06-10T08:00:48.557Z,7.25
2019-06-10T08:03:16.855Z,5.72
2019-06-10T08:05:46.555Z,4.15
2019-06-10T08:08:15.208Z,4.75
2019-06-10T08:10:46.044Z,6.35
2019-06-10T08:13:13.678Z,12.28
2019-06-10T08:15:44.257Z,15.60
2019-06-10T08:18:13.124Z,18.45
2019-06-10T08:20:47.955Z,26.90
2019-06-10T08:23:18.159Z,29.27
2019-06-10T08:25:53.609Z,36.55
2019-06-10T08:28:17.908Z,26.00
2019-06-10T08:30:46.470Z,26.25
2019-06-10T08:33:15.454Z,27.98
2019-06-10T08:35:53.273Z,23.90
2019-06-10T08:38:14.190Z,22.35
2019-06-10T08:40:44.967Z,32.45
2019-06-10T08:43:13.287Z,26.77
2019-06-10T08:45:44.135Z,28.57
2019-06-10T08:48:13.239Z,25.30
2019-06-10T08:50:46.594Z,23.87
2019-06-10T08:53:15.577Z,22.48
2019-06-10T08:55:46.097Z,26.00
2019-06-10T08:58:13.386Z,22.15
2019-06-10T09:00:45.121Z,19.32
2019-06-10T09:03:12.609Z,18.90
2019-06-10T09:05:45.861Z,19.50
2019-06-10T09:08:12.989Z,17.98
2019-06-10T09:10:44.012Z,19.82
2019-06-10T09:13:13.407Z,18.80
2019-06-10T09:15:44.948Z,20.45
2019-06-10T09:18:14.982Z,16.82
2019-06-10T09:20:47.519Z,16.32
2019-06-10T09:23:21.506Z,12.20
2019-06-10T09:25:47.333Z,16.82
2019-06-10T09:28:14.076Z,17.27
2019-06-10T09:30:47.693Z,13.45
2019-06-10T09:33:13.106Z,14.05
2019-06-10T09:35:45.669Z,15.58
2019-06-10T09:38:14.074Z,15.30
2019-06-10T09:40:59.019Z,13.62
2019-06-10T09:43:22.625Z,13.58
2019-06-10T09:45:56.379Z,13.35
2019-06-10T09:48:23.649Z,12.43
2019-06-10T09:50:57.901Z,13.60
2019-06-10T09:53:33.385Z,13.03
2019-06-10T09:55:55.546Z,11.28
2019-06-10T09:58:23.845Z,10.03
2019-06-10T10:00:57.799Z,12.93
2019-06-10T10:03:24.631Z,11.70
2019-06-10T10:08:52.374Z,10.40
2019-06-10T10:11:16.494Z,8.55
2019-06-10T10:13:46.540Z,8.25
2019-06-10T10:16:17.794Z,6.33
2019-06-10T10:18:51.847Z,6.90
2019-06-10T10:21:18.238Z,8.58
2019-06-10T10:23:58.309Z,6.83
2019-06-10T10:26:18.250Z,6.58
2019-06-10T10:28:48.807Z,7.90
2019-06-10T10:31:16.735Z,6.25
2019-06-10T10:33:46.741Z,6.62
2019-06-10T10:36:15.247Z,5.70
2019-06-10T10:38:44.728Z,5.60
2019-06-10T10:41:13.682Z,6.97
2019-06-10T10:43:43.581Z,7.50
2019-06-10T10:46:13.840Z,6.08
2019-06-10T10:48:43.023Z,5.33
2019-06-10T10:51:13.174Z,4.53
2019-06-10T10:53:44.566Z,3.77
2019-06-10T10:56:12.819Z,5.83
2019-06-10T10:58:43.683Z,5.03
2019-06-10T11:01:14.966Z,5.65
2019-06-10T11:03:45.340Z,5.22
2019-06-10T11:06:13.277Z,5.35
2019-06-10T11:08:44.112Z,5.12
2019-06-10T11:11:13.616Z,6.10
2019-06-10T11:13:45.408Z,6.20
2019-06-10T11:16:14.912Z,6.80
2019-06-10T11:18:43.438Z,3.62
2019-06-10T11:21:13.238Z,4.53
2019-06-10T11:23:43.533Z,4.72
2019-06-10T11:26:13.185Z,13.35
2019-06-10T11:28:42.874Z,6.00
2019-06-10T11:31:13.998Z,9.63
2019-06-10T11:33:43.436Z,3.80
2019-06-10T11:36:13.599Z,9.38
2019-06-10T11:38:42.539Z,5.03
2019-06-10T11:41:13.415Z,4.50
2019-06-10T11:43:42.954Z,7.37
2019-06-10T11:46:13.766Z,7.50
2019-06-10T11:48:44.080Z,4.62
2019-06-10T11:51:13.261Z,3.77
2019-06-10T11:53:43.959Z,5.83
2019-06-10T11:56:13.260Z,4.20
2019-06-10T11:58:42.631Z,5.45
2019-06-10T12:01:12.942Z,3.77
2019-06-10T12:03:43.041Z,5.17
2019-06-10T12:06:13.687Z,4.90
2019-06-10T12:08:43.564Z,4.30
2019-06-10T12:11:12.903Z,5.28
2019-06-10T12:13:42.852Z,4.78
2019-06-10T12:18:42.894Z,7.92
2019-06-10T12:21:13.049Z,4.58
2019-06-10T12:23:43.462Z,3.40
2019-06-10T12:26:11.515Z,4.62
2019-06-10T12:28:39.613Z,4.58
2019-06-10T12:31:07.736Z,5.90
2019-06-10T12:33:36.040Z,3.83
2019-06-10T12:36:07.138Z,5.12
2019-06-10T12:38:35.453Z,6.70
2019-06-10T12:41:08.902Z,7.47
2019-06-10T12:43:35.102Z,6.78
2019-06-10T12:46:03.830Z,5.50
2019-06-10T12:48:34.134Z,5.20
2019-06-10T12:51:07.973Z,4.92
2019-06-10T12:53:34.787Z,7.25
2019-06-10T12:56:08.011Z,3.42
2019-06-10T12:58:33.662Z,3.35
2019-06-10T13:01:05.573Z,4.40
2019-06-10T13:03:33.956Z,4.60
2019-06-10T13:06:07.257Z,5.53
2019-06-10T13:08:34.811Z,3.72
2019-06-10T13:11:04.105Z,5.47
2019-06-10T13:13:32.920Z,3.62
2019-06-10T13:16:04.248Z,4.47
2019-06-10T13:18:33.469Z,5.00
2019-06-10T13:21:07.406Z,3.75
2019-06-10T13:23:35.295Z,6.72
2019-06-10T13:26:10.213Z,4.57
2019-06-10T13:28:33.813Z,3.37
2019-06-10T13:31:05.929Z,5.15
2019-06-10T13:33:33.259Z,6.05
2019-06-10T13:36:04.825Z,4.58
2019-06-10T13:38:33.184Z,3.20
2019-06-10T13:41:02.343Z,3.40
2019-06-10T13:43:33.815Z,4.28
2019-06-10T13:46:03.095Z,3.15
2019-06-10T13:48:32.527Z,6.03
2019-06-10T13:51:04.715Z,2.83
2019-06-10T13:53:31.193Z,2.98
2019-06-10T13:56:19.061Z,2.27
2019-06-10T13:58:29.856Z,1.80
2019-06-10T14:00:59.760Z,4.80
2019-06-10T14:03:28.932Z,3.27
2019-06-10T14:06:01.737Z,3.10
2019-06-10T14:08:28.578Z,7.87
2019-06-10T14:10:57.507Z,3.00
2019-06-10T14:13:26.285Z,2.55
2019-06-10T14:15:55.288Z,4.55
2019-06-10T14:18:23.480Z,3.27
2019-06-10T14:20:53.277Z,3.08
2019-06-10T14:23:22.265Z,4.00
2019-06-10T14:25:52.426Z,3.55
2019-06-10T14:28:38.721Z,3.15
2019-06-10T14:30:53.956Z,5.10
2019-06-10T14:33:23.465Z,2.62
2019-06-10T14:35:53.507Z,3.42
2019-06-10T14:38:22.403Z,4.33
2019-06-10T14:40:52.661Z,3.98
2019-06-10T14:43:23.349Z,3.20
2019-06-10T14:45:53.444Z,2.90
2019-06-10T14:48:23.262Z,5.17
2019-06-10T14:50:54.193Z,3.12
2019-06-10T14:53:23.340Z,3.95
2019-06-10T14:55:53.605Z,6.40
2019-06-10T14:58:23.436Z,2.25
2019-06-10T15:00:54.534Z,6.12
2019-06-10T15:03:23.362Z,5.62
2019-06-10T15:05:52.885Z,5.85
2019-06-10T15:08:23.163Z,5.53
2019-06-10T15:10:52.798Z,4.65
2019-06-10T15:13:23.498Z,3.98
2019-06-10T15:15:53.198Z,6.47
2019-06-10T15:18:23.702Z,4.80
2019-06-10T15:20:53.402Z,5.92
2019-06-10T15:23:23.519Z,5.30
2019-06-10T15:25:56.590Z,5.15
2019-06-10T15:28:23.582Z,4.20
2019-06-10T15:30:52.716Z,4.53
2019-06-10T15:33:24.077Z,7.08
2019-06-10T15:35:53.524Z,5.87
2019-06-10T15:38:23.518Z,4.65
2019-06-10T15:40:53.318Z,4.28
2019-06-10T15:43:23.572Z,3.60
2019-06-10T15:45:52.801Z,6.28
2019-06-10T15:48:25.059Z,4.03
2019-06-10T15:50:51.780Z,6.92
2019-06-10T15:53:21.535Z,4.28
2019-06-10T15:56:10.118Z,4.47
2019-06-10T15:58:21.763Z,5.08
2019-06-10T16:00:53.466Z,5.20
2019-06-10T16:03:25.463Z,5.55
2019-06-10T16:05:54.150Z,5.43
2019-06-10T16:08:22.785Z,5.47
2019-06-10T16:10:52.504Z,7.05
2019-06-10T16:13:25.652Z,4.35
2019-06-10T16:15:53.277Z,7.45
2019-06-10T16:18:25.992Z,7.40
2019-06-10T16:20:52.775Z,4.33
2019-06-10T16:23:26.751Z,5.15
2019-06-10T16:26:13.135Z,5.70
2019-06-10T16:28:42.747Z,6.72
2019-06-10T16:31:16.407Z,4.78
2019-06-10T16:33:49.097Z,5.47
2019-06-10T16:36:17.155Z,5.37
2019-06-10T16:38:46.380Z,4.92
2019-06-10T16:41:15.321Z,10.88
2019-06-10T16:43:46.463Z,9.70
2019-06-10T16:46:16.044Z,6.28
2019-06-10T16:48:45.109Z,7.10
2019-06-10T16:51:13.584Z,6.22
2019-06-10T16:53:42.712Z,7.60
2019-06-10T16:56:17.687Z,7.58
2019-06-10T16:58:46.471Z,5.90
2019-06-10T17:01:14.747Z,7.85
2019-06-10T17:03:43.091Z,7.35
2019-06-10T17:06:13.055Z,5.85
2019-06-10T17:08:42.634Z,3.98
2019-06-10T17:11:29.399Z,7.40
2019-06-10T17:13:58.799Z,8.08
2019-06-10T17:16:29.558Z,6.45
2019-06-10T17:19:04.966Z,7.55
2019-06-10T17:22:00.570Z,5.35
2019-06-10T17:24:50.749Z,7.33
2019-06-10T17:27:22.267Z,5.10
2019-06-10T17:29:51.903Z,5.12
2019-06-10T17:32:30.263Z,4.97
2019-06-10T17:34:58.587Z,7.85
2019-06-10T17:37:26.841Z,4.90
2019-06-10T17:39:55.635Z,7.62
2019-06-10T17:42:30.279Z,4.35
2019-06-10T17:44:53.996Z,5.33
2019-06-10T17:47:24.542Z,3.60
2019-06-10T17:49:53.524Z,11.10
2019-06-10T17:52:24.113Z,6.00
2019-06-10T17:54:54.131Z,4.95
2019-06-10T17:57:26.550Z,3.42
2019-06-10T17:59:54.443Z,2.67
2019-06-10T18:02:24.657Z,6.55
2019-06-10T18:04:56.744Z,4.75
2019-06-10T18:07:25.644Z,3.85
2019-06-10T18:10:02.689Z,3.52
2019-06-10T18:12:32.970Z,6.53
2019-06-10T18:15:03.326Z,4.53
2019-06-10T18:17:33.570Z,4.87
2019-06-10T18:20:02.787Z,5.65
2019-06-10T18:22:34.025Z,5.47
2019-06-10T18:25:03.255Z,5.92
2019-06-10T18:27:34.120Z,3.42
2019-06-10T18:30:10.755Z,5.65
2019-06-10T18:32:37.415Z,3.42
2019-06-10T18:35:07.106Z,4.17
2019-06-10T18:37:36.403Z,4.92
2019-06-10T18:40:07.695Z,4.45
2019-06-10T18:42:39.901Z,4.47
2019-06-10T18:45:12.862Z,13.62
2019-06-10T18:47:43.470Z,5.37
2019-06-10T18:50:13.628Z,17.17
2019-06-10T18:52:43.319Z,25.80
2019-06-10T18:55:16.086Z,21.37
2019-06-10T18:57:44.116Z,32.53
2019-06-10T19:00:14.955Z,29.82
2019-06-10T19:02:48.984Z,31.25
2019-06-10T19:05:17.676Z,25.90
2019-06-10T19:07:46.940Z,27.95
2019-06-10T19:10:34.278Z,23.35
2019-06-10T19:13:02.582Z,26.17
2019-06-10T19:15:31.835Z,26.95
2019-06-10T19:18:03.250Z,27.42
2019-06-10T19:20:37.289Z,25.10
2019-06-10T19:23:08.031Z,22.85
2019-06-10T19:25:44.287Z,26.10
2019-06-10T19:28:12.230Z,21.25
2019-06-10T19:30:44.712Z,20.37
2019-06-10T19:33:12.717Z,32.55
2019-06-10T19:35:43.828Z,25.43
2019-06-10T19:38:12.656Z,23.27
2019-06-10T19:40:44.105Z,27.67
2019-06-10T19:43:17.464Z,22.37
2019-06-10T19:45:46.890Z,26.48
2019-06-10T19:48:19.357Z,21.30
2019-06-10T19:50:51.352Z,20.95
2019-06-10T19:53:18.754Z,19.80
2019-06-10T19:55:48.572Z,20.02
2019-06-10T19:58:17.196Z,17.67
2019-06-10T20:00:50.868Z,18.87
2019-06-10T20:03:15.505Z,18.62
2019-06-10T20:05:46.669Z,15.50
2019-06-10T20:08:13.585Z,14.63
2019-06-10T20:10:42.410Z,18.02
2019-06-10T20:13:10.830Z,17.10
2019-06-10T20:15:39.928Z,16.45
2019-06-10T20:18:08.697Z,14.30
2019-06-10T20:20:38.081Z,15.13
2019-06-10T20:23:08.765Z,14.13
2019-06-10T20:25:36.622Z,12.73
2019-06-10T20:28:04.839Z,12.18
2019-06-10T20:30:33.417Z,11.68
2019-06-10T20:33:03.370Z,10.45
2019-06-10T20:35:32.650Z,11.50
2019-06-10T20:38:04.632Z,10.23
2019-06-10T20:40:32.167Z,11.38
2019-06-10T20:43:03.187Z,9.00
2019-06-10T20:45:33.161Z,9.10
2019-06-10T20:48:02.970Z,8.53
2019-06-10T20:50:32.391Z,9.00
2019-06-10T20:53:13.869Z,8.95
2019-06-10T20:55:40.460Z,8.43
2019-06-10T20:58:04.185Z,8.88
2019-06-10T21:00:36.687Z,8.40
2019-06-10T21:03:06.561Z,8.43
2019-06-10T21:05:35.313Z,9.48
2019-06-10T21:08:04.257Z,8.68
2019-06-10T21:10:34.855Z,7.83
2019-06-10T21:13:04.634Z,8.65
2019-06-10T21:15:33.381Z,9.88
2019-06-10T21:18:01.458Z,19.12
2019-06-10T21:20:29.592Z,13.83
2019-06-10T21:22:57.891Z,9.78
2019-06-10T21:25:25.945Z,12.60
2019-06-10T21:27:54.251Z,12.25
2019-06-10T21:30:37.608Z,8.93
2019-06-10T21:32:54.663Z,13.45
2019-06-10T21:35:22.438Z,8.58
2019-06-10T21:37:51.633Z,11.50
2019-06-10T21:40:19.839Z,8.55
2019-06-10T21:42:47.957Z,10.00
2019-06-10T21:45:16.456Z,9.80
2019-06-10T21:47:45.618Z,7.40
2019-06-10T21:50:14.721Z,10.58
2019-06-10T21:52:44.643Z,9.60
2019-06-10T21:55:13.135Z,8.50
2019-06-10T21:57:43.003Z,6.22
2019-06-10T22:00:14.338Z,8.13
2019-06-10T22:02:45.213Z,10.38
2019-06-10T22:05:14.568Z,8.65
2019-06-10T22:07:43.841Z,6.70
2019-06-10T22:10:13.633Z,8.15
2019-06-10T22:12:42.269Z,9.58
2019-06-10T22:15:12.487Z,9.28
2019-06-10T22:17:42.566Z,6.50
2019-06-10T22:20:12.706Z,6.92
2019-06-10T22:22:42.717Z,5.90
2019-06-10T22:25:13.130Z,6.78
2019-06-10T22:27:42.113Z,5.60
2019-06-10T22:30:11.971Z,6.33
2019-06-10T22:32:42.749Z,5.72
2019-06-10T22:35:12.266Z,6.15
2019-06-10T22:37:40.628Z,13.25
2019-06-10T22:40:08.752Z,4.72
2019-06-10T22:42:36.827Z,7.70
2019-06-10T22:45:06.230Z,5.95
2019-06-10T22:47:34.339Z,8.28
2019-06-10T22:50:07.112Z,6.45
2019-06-10T22:52:34.140Z,6.80
2019-06-10T22:55:03.509Z,6.78
2019-06-10T22:57:31.848Z,6.85
2019-06-10T23:00:02.921Z,6.03
2019-06-10T23:02:30.407Z,7.70
2019-06-10T23:05:01.364Z,4.95
2019-06-10T23:07:28.424Z,6.33
2019-06-10T23:09:57.829Z,5.70
2019-06-10T23:12:26.961Z,7.30
2019-06-10T23:14:56.261Z,5.80
2019-06-10T23:17:24.912Z,7.17
2019-06-10T23:19:53.969Z,5.78
2019-06-10T23:22:23.309Z,6.80
2019-06-10T23:24:51.554Z,7.12
2019-06-10T23:27:22.184Z,5.65
2019-06-10T23:29:52.745Z,5.83
2019-06-10T23:32:22.185Z,6.22
2019-06-10T23:34:53.603Z,6.55
2019-06-10T23:37:22.846Z,5.20
2019-06-10T23:39:50.920Z,6.60
2019-06-10T23:42:18.957Z,5.78
2019-06-10T23:44:47.051Z,6.03
2019-06-10T23:47:15.445Z,6.30
2019-06-10T23:49:43.585Z,4.25
2019-06-10T23:52:12.768Z,3.45
2019-06-10T23:54:41.119Z,4.00
2019-06-10T23:57:09.131Z,4.35
2019-06-10T23:59:37.171Z,7.35
